Time;durP1;ratioP1;P1;durP2;ratioP2;P2;SDS_P1;SDS_P2;PMS_P1;PMS_P2;Temp;Humidity;BMP_temperature;BMP_pressure;BME280_temperature;BME280_humidity;BME280_pressure;Samples;Min_cycle;Max_cycle;Signal;HPM_P1;HPM_P2
2022/05/21 00:01:43;;;;;;;1.45;1.10;;;;;;;;;;5000478;28;20076;-73
2022/05/21 00:04:08;;;;;;;2.45;1.10;;;;;;;;;;5001095;28;20470;-71
2022/05/21 00:06:34;;;;;;;1.63;1.10;;;;;;;;;;5001043;28;20018;-74
2022/05/21 00:08:59;;;;;;;1.23;0.80;;;;;;;;;;4999455;28;20022;-71
2022/05/21 00:11:24;;;;;;;1.27;1.08;;;;;;;;;;5001571;28;20117;-74
2022/05/21 00:13:50;;;;;;;1.85;1.50;;;;;;;;;;4987424;28;20030;-73
2022/05/21 00:16:16;;;;;;;2.03;1.20;;;;;;;;;;5001563;28;20032;-73
2022/05/21 00:18:41;;;;;;;1.50;1.02;;;;;;;;;;5000894;28;20022;-71
2022/05/21 00:21:06;;;;;;;2.08;1.38;;;;;;;;;;5000917;28;20528;-73
2022/05/21 00:23:32;;;;;;;1.92;1.42;;;;;;;;;;4999715;28;20109;-72
2022/05/21 00:25:59;;;;;;;3.33;2.67;;;;;;;;;;5000296;28;20033;-73
2022/05/21 00:28:25;;;;;;;2.88;2.03;;;;;;;;;;5001689;28;20037;-76
2022/05/21 00:30:51;;;;;;;1.23;1.15;;;;;;;;;;4994768;28;20033;-75
2022/05/21 00:33:16;;;;;;;1.45;1.00;;;;;;;;;;4995823;28;20034;-74
2022/05/21 00:35:41;;;;;;;1.00;0.90;;;;;;;;;;4998659;28;20085;-73
2022/05/21 00:38:07;;;;;;;2.28;1.08;;;;;;;;;;4988388;28;20033;-72
2022/05/21 00:40:33;;;;;;;2.63;1.00;;;;;;;;;;5004147;28;20425;-75
2022/05/21 00:42:58;;;;;;;0.77;0.75;;;;;;;;;;5005183;28;20085;-72
2022/05/21 00:45:24;;;;;;;1.23;1.10;;;;;;;;;;5005094;28;20059;-74
2022/05/21 00:47:50;;;;;;;1.00;0.75;;;;;;;;;;5005560;28;20503;-73
2022/05/21 00:50:17;;;;;;;0.65;0.65;;;;;;;;;;5005032;28;20038;-73
2022/05/21 00:52:44;;;;;;;1.63;0.90;;;;;;;;;;5002700;28;20022;-72
2022/05/21 00:55:12;;;;;;;1.75;1.00;;;;;;;;;;5004788;28;20037;-74
2022/05/21 00:57:42;;;;;;;1.90;1.17;;;;;;;;;;5004725;28;21017;-73
2022/05/21 01:00:14;;;;;;;1.48;1.15;;;;;;;;;;5004428;28;20022;-72
2022/05/21 01:02:44;;;;;;;1.15;1.05;;;;;;;;;;5004638;28;20038;-75
2022/05/21 01:05:12;;;;;;;1.58;1.02;;;;;;;;;;5005019;28;20089;-73
2022/05/21 01:07:38;;;;;;;1.83;1.10;;;;;;;;;;4995549;28;20117;-73
2022/05/21 01:10:05;;;;;;;0.80;0.80;;;;;;;;;;5001625;28;20927;-73
2022/05/21 01:12:32;;;;;;;0.82;0.80;;;;;;;;;;4994150;28;20149;-72
2022/05/21 01:15:00;;;;;;;0.80;0.80;;;;;;;;;;5000801;28;20048;-74
2022/05/21 01:17:25;;;;;;;1.85;0.75;;;;;;;;;;5004143;28;20527;-73
2022/05/21 01:20:02;;;;;;;1.08;1.00;;;;;;;;;;5004503;28;20018;-73
2022/05/21 01:22:28;;;;;;;1.20;1.10;;;;;;;;;;5004288;28;20468;-73
2022/05/21 01:24:54;;;;;;;1.10;0.80;;;;;;;;;;5004175;28;20034;-72
2022/05/21 01:27:19;;;;;;;1.60;0.77;;;;;;;;;;4995457;28;20466;-73
2022/05/21 01:29:47;;;;;;;1.05;0.50;;;;;;;;;;5004435;28;20430;-73
2022/05/21 01:32:16;;;;;;;0.90;0.90;;;;;;;;;;5004037;28;20105;-72
2022/05/21 01:34:42;;;;;;;1.83;0.90;;;;;;;;;;5003532;28;20472;-73
2022/05/21 01:37:07;;;;;;;1.45;1.20;;;;;;;;;;5003384;28;20037;-73
2022/05/21 01:39:33;;;;;;;2.60;0.98;;;;;;;;;;5003454;28;20030;-73
2022/05/21 01:41:58;;;;;;;1.10;1.00;;;;;;;;;;5002898;28;20026;-73
2022/05/21 01:44:39;;;;;;;1.60;1.50;;;;;;;;;;5002562;28;20604;-73
2022/05/21 01:47:14;;;;;;;2.10;1.90;;;;;;;;;;5003120;28;20034;-73
2022/05/21 01:49:40;;;;;;;2.20;2.00;;;;;;;;;;5003038;28;20433;-74
2022/05/21 01:52:07;;;;;;;1.75;1.60;;;;;;;;;;5001967;28;20096;-73
2022/05/21 01:54:33;;;;;;;1.70;1.60;;;;;;;;;;5003107;28;20057;-73
2022/05/21 01:56:58;;;;;;;1.52;1.42;;;;;;;;;;5002279;28;20027;-73
2022/05/21 01:59:24;;;;;;;1.42;1.33;;;;;;;;;;5003492;28;20116;-74
2022/05/21 02:01:49;;;;;;;1.42;1.33;;;;;;;;;;5002878;28;20128;-72
2022/05/21 02:04:15;;;;;;;1.80;1.40;;;;;;;;;;5003044;28;20025;-73
2022/05/21 02:06:42;;;;;;;1.95;1.20;;;;;;;;;;4991434;28;20456;-73
2022/05/21 02:09:07;;;;;;;1.23;1.13;;;;;;;;;;5002043;28;20029;-73
2022/05/21 02:11:33;;;;;;;1.05;0.90;;;;;;;;;;5003047;28;20028;-73
2022/05/21 02:13:58;;;;;;;1.45;1.05;;;;;;;;;;5003976;28;20029;-73
2022/05/21 02:16:23;;;;;;;0.82;0.82;;;;;;;;;;5003115;28;20505;-74
2022/05/21 02:18:49;;;;;;;1.20;0.95;;;;;;;;;;5003019;28;20030;-73
2022/05/21 02:21:14;;;;;;;0.80;0.80;;;;;;;;;;5003115;28;21351;-72
2022/05/21 02:23:39;;;;;;;1.90;0.90;;;;;;;;;;5002871;28;20036;-74
2022/05/21 02:26:05;;;;;;;1.60;0.93;;;;;;;;;;5002658;28;20046;-74
2022/05/21 02:28:30;;;;;;;2.53;1.10;;;;;;;;;;5001786;28;20028;-73
2022/05/21 02:30:55;;;;;;;1.02;0.90;;;;;;;;;;5002086;28;20145;-73
2022/05/21 02:33:21;;;;;;;1.48;1.13;;;;;;;;;;5009019;28;20021;-73
2022/05/21 02:35:46;;;;;;;1.88;1.20;;;;;;;;;;5001456;28;20034;-72
2022/05/21 02:40:56;;;;;;;1.20;1.08;;;;;;;;;;5002399;28;20103;-73
2022/05/21 02:43:21;;;;;;;1.50;1.10;;;;;;;;;;5001917;28;20026;-73
2022/05/21 02:45:46;;;;;;;0.80;0.80;;;;;;;;;;5002202;28;20037;-74
2022/05/21 02:48:12;;;;;;;1.35;1.00;;;;;;;;;;5002501;28;20410;-74
2022/05/21 02:50:37;;;;;;;0.80;0.80;;;;;;;;;;5001465;28;20029;-75
2022/05/21 02:53:04;;;;;;;1.02;0.93;;;;;;;;;;4993833;28;20060;-73
2022/05/21 02:55:29;;;;;;;0.80;0.80;;;;;;;;;;5008802;28;20163;-73
2022/05/21 02:57:55;;;;;;;3.38;1.25;;;;;;;;;;5009891;28;20108;-72
2022/05/21 03:00:22;;;;;;;1.73;1.00;;;;;;;;;;5016128;28;20017;-74
2022/05/21 03:02:48;;;;;;;1.20;0.73;;;;;;;;;;5006280;28;20060;-73
2022/05/21 03:05:13;;;;;;;0.85;0.75;;;;;;;;;;5008971;28;20118;-72
2022/05/21 03:07:40;;;;;;;0.95;0.90;;;;;;;;;;5014361;28;20441;-72
2022/05/21 03:10:21;;;;;;;1.00;0.82;;;;;;;;;;5014030;28;20153;-73
2022/05/21 03:12:50;;;;;;;0.65;0.65;;;;;;;;;;5013956;28;20353;-73
2022/05/21 03:15:16;;;;;;;2.10;0.80;;;;;;;;;;5014775;28;20029;-74
2022/05/21 03:17:41;;;;;;;2.03;1.10;;;;;;;;;;5014140;28;20070;-72
2022/05/21 03:20:07;;;;;;;2.22;0.90;;;;;;;;;;5013213;28;20040;-72
2022/05/21 03:22:32;;;;;;;1.60;1.00;;;;;;;;;;5015855;28;20025;-73
2022/05/21 03:24:58;;;;;;;1.20;1.02;;;;;;;;;;5015151;28;20034;-71
2022/05/21 03:27:24;;;;;;;1.08;0.98;;;;;;;;;;5000103;28;20028;-77
2022/05/21 03:29:49;;;;;;;2.08;1.17;;;;;;;;;;5005728;28;20530;-73
2022/05/21 03:32:15;;;;;;;2.83;1.05;;;;;;;;;;5008968;28;20026;-73
2022/05/21 03:34:40;;;;;;;1.17;1.08;;;;;;;;;;5014729;28;20029;-71
2022/05/21 03:37:06;;;;;;;1.73;1.00;;;;;;;;;;5013150;28;20083;-72
2022/05/21 03:39:31;;;;;;;1.13;0.95;;;;;;;;;;5000458;28;20037;-75
2022/05/21 03:41:57;;;;;;;1.40;1.20;;;;;;;;;;5012908;28;20029;-72
2022/05/21 03:44:22;;;;;;;1.67;0.80;;;;;;;;;;5014670;28;20116;-72
2022/05/21 03:46:47;;;;;;;3.35;1.13;;;;;;;;;;5000079;28;20083;-72
2022/05/21 03:49:13;;;;;;;0.88;0.75;;;;;;;;;;4993595;28;21095;-72
2022/05/21 03:51:39;;;;;;;0.75;0.75;;;;;;;;;;4995965;28;20478;-73
2022/05/21 03:54:04;;;;;;;2.72;1.20;;;;;;;;;;4986960;28;20046;-73
2022/05/21 03:56:29;;;;;;;1.48;0.90;;;;;;;;;;4988418;28;20018;-72
2022/05/21 03:58:55;;;;;;;1.40;0.90;;;;;;;;;;4996426;28;20117;-73
2022/05/21 04:01:20;;;;;;;3.05;1.25;;;;;;;;;;5000740;28;20021;-72
2022/05/21 04:03:45;;;;;;;1.60;1.13;;;;;;;;;;5000652;28;20445;-72
2022/05/21 04:06:12;;;;;;;3.97;0.90;;;;;;;;;;4999702;28;20081;-72
2022/05/21 04:08:37;;;;;;;2.08;0.95;;;;;;;;;;4999070;28;20121;-74
2022/05/21 04:11:03;;;;;;;0.98;0.82;;;;;;;;;;4999257;28;20101;-73
2022/05/21 04:13:28;;;;;;;3.78;2.53;;;;;;;;;;5002731;28;20038;-74
2022/05/21 04:15:54;;;;;;;2.22;1.73;;;;;;;;;;5003315;28;20026;-72
2022/05/21 04:18:19;;;;;;;1.58;1.45;;;;;;;;;;4991987;28;21014;-73
2022/05/21 04:20:45;;;;;;;1.45;1.30;;;;;;;;;;5004167;28;20030;-73
2022/05/21 04:23:10;;;;;;;3.28;2.47;;;;;;;;;;5005218;28;20022;-71
2022/05/21 04:25:36;;;;;;;4.03;2.40;;;;;;;;;;5005596;28;20100;-72
2022/05/21 04:28:02;;;;;;;3.97;2.03;;;;;;;;;;5005739;28;20100;-73
2022/05/21 04:30:28;;;;;;;2.22;1.70;;;;;;;;;;5005448;28;20371;-74
2022/05/21 04:32:54;;;;;;;2.83;1.50;;;;;;;;;;5005328;28;20353;-72
2022/05/21 04:35:20;;;;;;;1.55;1.00;;;;;;;;;;5005046;28;20456;-72
2022/05/21 04:37:46;;;;;;;0.98;0.90;;;;;;;;;;5004839;28;20026;-72
2022/05/21 04:40:14;;;;;;;1.65;1.25;;;;;;;;;;5004956;28;20029;-72
2022/05/21 04:42:39;;;;;;;2.08;1.58;;;;;;;;;;5004668;28;20858;-72
2022/05/21 04:45:05;;;;;;;1.25;1.15;;;;;;;;;;5004050;28;20586;-73
2022/05/21 04:47:30;;;;;;;1.02;0.93;;;;;;;;;;5003499;28;20026;-72
2022/05/21 04:49:56;;;;;;;1.10;1.00;;;;;;;;;;5003439;28;20399;-73
2022/05/21 04:52:21;;;;;;;1.40;1.20;;;;;;;;;;5004398;28;20026;-75
2022/05/21 04:54:46;;;;;;;1.48;1.38;;;;;;;;;;5004270;28;20435;-73
2022/05/21 04:57:12;;;;;;;2.58;1.05;;;;;;;;;;5003013;28;20105;-72
2022/05/21 04:59:37;;;;;;;1.25;1.15;;;;;;;;;;5005303;28;20053;-72
2022/05/21 05:02:03;;;;;;;2.13;1.20;;;;;;;;;;5004887;28;20037;-75
2022/05/21 05:04:28;;;;;;;3.08;1.10;;;;;;;;;;5003900;28;20088;-73
2022/05/21 05:06:54;;;;;;;2.03;1.50;;;;;;;;;;5004155;28;20033;-72
2022/05/21 05:09:23;;;;;;;2.45;1.25;;;;;;;;;;5004919;28;20034;-73
2022/05/21 05:11:51;;;;;;;1.10;1.02;;;;;;;;;;5004007;28;20441;-78
2022/05/21 05:14:17;;;;;;;2.33;1.27;;;;;;;;;;5003048;28;20030;-74
2022/05/21 05:16:42;;;;;;;1.50;1.40;;;;;;;;;;5003912;28;20449;-75
2022/05/21 05:19:07;;;;;;;1.40;1.30;;;;;;;;;;5003554;28;20026;-73
2022/05/21 05:21:33;;;;;;;1.20;1.10;;;;;;;;;;4994156;28;20037;-73
2022/05/21 05:23:58;;;;;;;1.65;1.40;;;;;;;;;;4999975;28;20029;-72
2022/05/21 05:26:24;;;;;;;1.95;1.50;;;;;;;;;;5004492;28;20047;-75
2022/05/21 05:28:49;;;;;;;3.13;1.98;;;;;;;;;;5001565;28;20822;-73
2022/05/21 05:31:15;;;;;;;1.58;1.20;;;;;;;;;;4986043;28;20034;-72
2022/05/21 05:33:40;;;;;;;1.73;1.48;;;;;;;;;;5002822;28;20038;-72
2022/05/21 05:36:06;;;;;;;1.50;1.40;;;;;;;;;;5004112;28;20088;-73
2022/05/21 05:38:32;;;;;;;1.27;1.13;;;;;;;;;;5002980;28;20022;-74
2022/05/21 05:40:57;;;;;;;0.80;0.80;;;;;;;;;;5003698;28;20030;-74
2022/05/21 05:43:23;;;;;;;1.63;0.82;;;;;;;;;;5002254;28;20077;-75
2022/05/21 05:45:49;;;;;;;1.40;0.70;;;;;;;;;;5000375;28;20092;-74
2022/05/21 05:48:15;;;;;;;1.10;0.90;;;;;;;;;;4986737;28;20057;-73
2022/05/21 05:50:40;;;;;;;1.15;1.05;;;;;;;;;;4989249;28;20057;-74
2022/05/21 05:53:07;;;;;;;1.83;0.82;;;;;;;;;;5006440;28;20045;-75
2022/05/21 05:55:32;;;;;;;1.05;0.77;;;;;;;;;;4997449;28;20450;-78
2022/05/21 05:57:58;;;;;;;1.33;0.90;;;;;;;;;;4990607;28;23147;-72
2022/05/21 06:00:24;;;;;;;2.50;0.90;;;;;;;;;;4994696;28;20022;-72
2022/05/21 06:02:58;;;;;;;0.70;0.70;;;;;;;;;;4997400;28;20017;-72
2022/05/21 06:05:23;;;;;;;0.80;0.80;;;;;;;;;;4996260;28;20030;-75
2022/05/21 06:07:50;;;;;;;1.80;1.02;;;;;;;;;;4996856;28;20033;-74
2022/05/21 06:10:23;;;;;;;1.83;1.30;;;;;;;;;;4995998;28;20095;-72
2022/05/21 06:12:48;;;;;;;3.88;2.03;;;;;;;;;;4995430;28;20353;-74
2022/05/21 06:15:14;;;;;;;1.80;1.70;;;;;;;;;;4996516;28;20440;-73
2022/05/21 06:17:40;;;;;;;1.60;1.20;;;;;;;;;;4994412;28;20079;-73
2022/05/21 06:20:06;;;;;;;1.02;0.80;;;;;;;;;;4999832;28;20021;-74
2022/05/21 06:22:32;;;;;;;1.25;0.98;;;;;;;;;;4997648;28;20036;-72
2022/05/21 06:24:58;;;;;;;1.33;0.82;;;;;;;;;;5005075;28;20029;-72
2022/05/21 06:27:23;;;;;;;0.80;0.80;;;;;;;;;;4999182;28;20029;-74
2022/05/21 06:29:49;;;;;;;0.73;0.60;;;;;;;;;;5000586;28;20029;-77
2022/05/21 06:32:14;;;;;;;0.88;0.82;;;;;;;;;;5001121;28;20033;-74
2022/05/21 06:34:40;;;;;;;4.72;2.45;;;;;;;;;;4978177;28;20036;-72
2022/05/21 06:37:07;;;;;;;4.13;2.08;;;;;;;;;;4995581;28;20029;-72
2022/05/21 06:39:33;;;;;;;1.23;1.10;;;;;;;;;;5001633;28;20041;-73
2022/05/21 06:41:59;;;;;;;1.17;0.82;;;;;;;;;;4998777;28;20041;-75
2022/05/21 06:44:24;;;;;;;2.35;1.20;;;;;;;;;;4997604;28;20029;-73
2022/05/21 06:46:49;;;;;;;1.10;1.00;;;;;;;;;;4986917;28;20866;-76
2022/05/21 06:49:15;;;;;;;1.42;1.08;;;;;;;;;;4985287;28;20037;-73
2022/05/21 06:51:40;;;;;;;2.22;1.30;;;;;;;;;;4982183;28;20060;-75
2022/05/21 06:54:05;;;;;;;1.52;0.90;;;;;;;;;;4989662;28;20469;-74
2022/05/21 06:56:31;;;;;;;1.58;1.17;;;;;;;;;;4995393;28;20038;-71
2022/05/21 06:58:56;;;;;;;1.70;0.80;;;;;;;;;;5002960;28;20045;-72
2022/05/21 07:01:21;;;;;;;1.13;1.02;;;;;;;;;;5003354;28;20025;-73
2022/05/21 07:03:46;;;;;;;0.80;0.80;;;;;;;;;;5002543;28;20442;-74
2022/05/21 07:08:55;;;;;;;0.90;0.90;;;;;;;;;;4987290;28;20064;-73
2022/05/21 07:11:21;;;;;;;0.77;0.55;;;;;;;;;;4994614;28;20069;-73
2022/05/21 07:13:46;;;;;;;0.93;0.90;;;;;;;;;;4992758;28;20029;-77
2022/05/21 07:16:12;;;;;;;0.80;0.80;;;;;;;;;;4977495;28;20044;-72
2022/05/21 07:18:38;;;;;;;1.33;1.10;;;;;;;;;;4988628;28;20124;-72
2022/05/21 07:21:03;;;;;;;0.85;0.80;;;;;;;;;;4994493;28;20045;-74
2022/05/21 07:23:29;;;;;;;0.73;0.73;;;;;;;;;;4989030;28;20038;-75
2022/05/21 07:25:57;;;;;;;2.88;0.95;;;;;;;;;;4993203;28;20033;-74
2022/05/21 07:28:24;;;;;;;1.20;0.70;;;;;;;;;;5002999;28;20117;-73
2022/05/21 07:30:50;;;;;;;1.92;0.73;;;;;;;;;;4987808;28;20710;-75
2022/05/21 07:33:16;;;;;;;3.67;1.02;;;;;;;;;;4986279;28;20026;-78
2022/05/21 07:35:42;;;;;;;1.80;0.90;;;;;;;;;;4987486;28;20497;-74
2022/05/21 07:38:08;;;;;;;0.90;0.73;;;;;;;;;;4985105;28;20172;-74
2022/05/21 07:40:34;;;;;;;2.13;1.02;;;;;;;;;;4987621;28;20038;-77
2022/05/21 07:43:07;;;;;;;1.27;1.17;;;;;;;;;;4986956;28;20448;-73
2022/05/21 07:45:38;;;;;;;1.00;0.90;;;;;;;;;;4986332;28;20579;-73
2022/05/21 07:48:04;;;;;;;1.42;1.33;;;;;;;;;;4985161;28;20120;-74
2022/05/21 07:50:29;;;;;;;1.35;1.15;;;;;;;;;;4985489;28;20105;-74
2022/05/21 07:52:54;;;;;;;2.08;1.70;;;;;;;;;;4985920;28;20053;-75
2022/05/21 07:55:19;;;;;;;3.47;2.88;;;;;;;;;;4985833;28;20033;-75
2022/05/21 07:57:45;;;;;;;2.15;2.00;;;;;;;;;;4986859;28;20109;-75
2022/05/21 08:00:17;;;;;;;2.33;2.05;;;;;;;;;;4986201;28;20061;-76
2022/05/21 08:02:42;;;;;;;1.60;1.50;;;;;;;;;;4985589;28;20026;-74
2022/05/21 08:05:09;;;;;;;1.30;1.17;;;;;;;;;;4986439;28;20116;-75
2022/05/21 08:07:34;;;;;;;2.40;1.90;;;;;;;;;;4992896;28;20034;-70
2022/05/21 08:09:59;;;;;;;1.75;1.60;;;;;;;;;;4988853;28;20025;-71
2022/05/21 08:12:25;;;;;;;1.52;1.40;;;;;;;;;;4999799;28;20033;-72
2022/05/21 08:14:50;;;;;;;2.10;1.40;;;;;;;;;;4994042;28;20030;-74
2022/05/21 08:17:15;;;;;;;1.75;1.50;;;;;;;;;;4986994;28;20145;-75
2022/05/21 08:19:41;;;;;;;2.90;1.52;;;;;;;;;;4995647;28;20018;-73
2022/05/21 08:27:35;;;;;;;1.55;1.17;;;;;;;;;;4999902;28;20112;-75
2022/05/21 08:30:00;;;;;;;1.75;1.40;;;;;;;;;;5000918;28;20090;-74
2022/05/21 08:32:25;;;;;;;2.58;2.38;;;;;;;;;;5001118;28;20030;-76
2022/05/21 08:34:52;;;;;;;3.33;1.50;;;;;;;;;;4988953;28;20034;-73
2022/05/21 08:37:18;;;;;;;1.63;1.48;;;;;;;;;;5000606;28;20080;-75
2022/05/21 08:39:43;;;;;;;1.35;1.15;;;;;;;;;;5001206;28;20412;-73
2022/05/21 08:42:42;;;;;;;2.00;1.60;;;;;;;;;;5001541;28;20433;-75
2022/05/21 08:45:19;;;;;;;1.92;1.20;;;;;;;;;;4952033;28;20050;-72
2022/05/21 08:47:47;;;;;;;2.65;1.77;;;;;;;;;;4986821;28;20037;-73
2022/05/21 08:50:14;;;;;;;1.33;1.23;;;;;;;;;;4985795;28;20052;-76
2022/05/21 08:52:44;;;;;;;4.25;2.90;;;;;;;;;;4994804;28;20475;-72
2022/05/21 08:55:32;;;;;;;1.92;1.77;;;;;;;;;;4989031;28;20705;-72
2022/05/21 08:58:00;;;;;;;2.17;1.35;;;;;;;;;;4979213;28;20552;-77
2022/05/21 09:00:33;;;;;;;1.13;1.02;;;;;;;;;;4998496;28;20062;-73
2022/05/21 09:02:58;;;;;;;1.90;1.27;;;;;;;;;;5003436;28;20117;-76
2022/05/21 09:05:25;;;;;;;1.75;1.30;;;;;;;;;;5004854;28;20168;-73
2022/05/21 09:07:57;;;;;;;1.63;1.02;;;;;;;;;;5005001;28;20426;-73
2022/05/21 09:10:28;;;;;;;1.00;0.90;;;;;;;;;;5004745;28;20057;-71
2022/05/21 09:12:57;;;;;;;1.70;1.30;;;;;;;;;;4998186;28;20076;-75
2022/05/21 09:18:07;;;;;;;2.65;1.52;;;;;;;;;;5003463;28;20048;-71
2022/05/21 09:20:36;;;;;;;1.55;1.38;;;;;;;;;;5002990;28;20030;-73
2022/05/21 09:23:02;;;;;;;1.52;1.23;;;;;;;;;;4990473;28;20034;-74
2022/05/21 09:25:27;;;;;;;1.88;1.50;;;;;;;;;;4992042;28;20026;-70
2022/05/21 09:28:00;;;;;;;1.70;1.60;;;;;;;;;;5001011;28;20076;-72
2022/05/21 09:30:28;;;;;;;1.55;1.23;;;;;;;;;;5004365;28;20026;-73
2022/05/21 09:32:56;;;;;;;1.83;1.30;;;;;;;;;;5003322;28;20025;-73
2022/05/21 09:35:23;;;;;;;1.55;1.10;;;;;;;;;;4987567;28;20037;-75
2022/05/21 09:37:49;;;;;;;1.25;1.05;;;;;;;;;;4991761;28;20474;-73
2022/05/21 09:40:27;;;;;;;2.90;2.13;;;;;;;;;;4991680;28;20034;-72
2022/05/21 09:45:37;;;;;;;1.27;1.17;;;;;;;;;;5003812;28;20095;-76
2022/05/21 09:48:05;;;;;;;2.88;1.27;;;;;;;;;;5003980;28;20042;-75
2022/05/21 09:50:40;;;;;;;1.30;1.20;;;;;;;;;;4994236;28;20014;-74
2022/05/21 09:53:19;;;;;;;1.80;1.33;;;;;;;;;;4992526;28;20048;-75
2022/05/21 09:55:55;;;;;;;1.52;1.23;;;;;;;;;;5004511;28;20033;-73
2022/05/21 09:58:21;;;;;;;2.13;1.02;;;;;;;;;;5003252;28;20464;-73
2022/05/21 10:00:52;;;;;;;1.92;1.52;;;;;;;;;;5015018;28;20057;-75
2022/05/21 10:03:34;;;;;;;1.90;1.30;;;;;;;;;;5014000;28;20026;-76
2022/05/21 10:06:00;;;;;;;2.22;1.60;;;;;;;;;;5016392;28;20044;-76
2022/05/21 10:11:35;;;;;;;1.55;1.42;;;;;;;;;;4998759;28;20133;-75
2022/05/21 10:14:03;;;;;;;1.70;1.60;;;;;;;;;;4999251;28;20038;-73
2022/05/21 10:16:28;;;;;;;1.42;1.33;;;;;;;;;;5017459;28;20030;-74
2022/05/21 10:19:06;;;;;;;1.23;1.10;;;;;;;;;;4979565;28;20030;-72
2022/05/21 10:21:36;;;;;;;1.40;1.23;;;;;;;;;;5005893;28;20025;-72
2022/05/21 10:24:06;;;;;;;1.70;1.60;;;;;;;;;;5010317;28;20038;-73
2022/05/21 10:26:58;;;;;;;2.00;1.50;;;;;;;;;;5001573;28;20132;-75
2022/05/21 10:29:32;;;;;;;1.33;1.17;;;;;;;;;;5012030;28;20060;-73
2022/05/21 10:32:05;;;;;;;2.13;1.50;;;;;;;;;;5003077;28;20026;-73
2022/05/21 10:34:44;;;;;;;1.70;1.60;;;;;;;;;;5006619;28;20112;-73
2022/05/21 10:37:12;;;;;;;1.63;1.45;;;;;;;;;;5011625;28;20030;-73
2022/05/21 10:39:55;;;;;;;1.60;1.50;;;;;;;;;;5003685;28;20033;-77
2022/05/21 10:42:26;;;;;;;2.75;1.55;;;;;;;;;;5007019;28;20048;-73
2022/05/21 10:45:07;;;;;;;2.22;1.52;;;;;;;;;;4992589;28;20030;-75
2022/05/21 10:47:51;;;;;;;1.50;1.35;;;;;;;;;;4993584;28;20093;-77
2022/05/21 10:50:37;;;;;;;1.58;1.48;;;;;;;;;;4990684;28;20192;-76
2022/05/21 10:53:08;;;;;;;3.13;1.65;;;;;;;;;;4992510;28;20130;-71
2022/05/21 10:55:52;;;;;;;1.50;1.35;;;;;;;;;;4990931;28;20183;-73
2022/05/21 10:58:23;;;;;;;2.35;1.40;;;;;;;;;;5000822;28;20417;-73
2022/05/21 11:00:48;;;;;;;1.55;1.45;;;;;;;;;;4999831;28;20438;-78
2022/05/21 11:03:17;;;;;;;2.87;1.50;;;;;;;;;;4991645;28;20041;-75
2022/05/21 11:05:48;;;;;;;1.60;1.50;;;;;;;;;;4993954;28;20362;-71
2022/05/21 11:08:27;;;;;;;1.83;1.40;;;;;;;;;;4990708;28;20017;-72
2022/05/21 11:10:55;;;;;;;1.98;1.70;;;;;;;;;;4972614;28;20057;-72
2022/05/21 11:13:22;;;;;;;1.40;1.30;;;;;;;;;;4995707;28;20033;-73
2022/05/21 11:16:00;;;;;;;2.22;1.60;;;;;;;;;;4974884;28;20033;-79
2022/05/21 11:18:46;;;;;;;1.70;1.60;;;;;;;;;;4997879;28;20030;-75
2022/05/21 11:21:21;;;;;;;1.50;1.40;;;;;;;;;;5004408;28;20031;-73
2022/05/21 11:23:52;;;;;;;1.73;1.63;;;;;;;;;;4998022;28;20451;-73
2022/05/21 11:26:23;;;;;;;2.63;1.25;;;;;;;;;;4995871;28;20040;-76
2022/05/21 11:28:50;;;;;;;1.95;1.65;;;;;;;;;;4976646;28;20049;-73
2022/05/21 11:37:22;;;;;;;1.88;1.35;;;;;;;;;;4981459;28;20836;-76
2022/05/21 11:39:49;;;;;;;2.05;1.50;;;;;;;;;;4982795;28;20022;-75
2022/05/21 11:42:16;;;;;;;1.42;1.33;;;;;;;;;;4989939;28;20104;-74
2022/05/21 11:47:30;;;;;;;4.68;3.58;;;;;;;;;;4989750;28;20084;-73
2022/05/21 11:49:55;;;;;;;2.33;1.90;;;;;;;;;;4987133;28;20041;-72
2022/05/21 11:52:26;;;;;;;1.97;1.60;;;;;;;;;;4986373;28;20036;-76
2022/05/21 11:54:58;;;;;;;2.40;1.88;;;;;;;;;;4988711;28;20275;-73
2022/05/21 11:57:29;;;;;;;2.53;1.77;;;;;;;;;;5010270;28;20037;-73
2022/05/21 11:59:54;;;;;;;1.52;1.42;;;;;;;;;;5016246;28;20034;-77
2022/05/21 12:02:22;;;;;;;2.83;2.60;;;;;;;;;;5012648;28;20604;-74
2022/05/21 12:04:48;;;;;;;4.88;2.08;;;;;;;;;;4999912;28;20036;-71
2022/05/21 12:07:17;;;;;;;1.67;1.58;;;;;;;;;;5014499;28;20040;-74
2022/05/21 12:10:00;;;;;;;1.50;1.27;;;;;;;;;;5012895;28;20018;-73
2022/05/21 12:12:28;;;;;;;1.80;1.70;;;;;;;;;;5016604;28;20025;-75
2022/05/21 12:15:08;;;;;;;1.67;1.50;;;;;;;;;;5015369;28;20038;-74
2022/05/21 12:17:36;;;;;;;1.92;1.63;;;;;;;;;;5017035;28;20017;-73
2022/05/21 12:20:04;;;;;;;1.40;1.30;;;;;;;;;;5011893;28;20509;-74
2022/05/21 12:22:33;;;;;;;1.85;1.75;;;;;;;;;;4987348;28;20038;-77
2022/05/21 12:24:59;;;;;;;2.33;1.60;;;;;;;;;;5006753;28;20052;-72
2022/05/21 12:27:27;;;;;;;2.00;1.80;;;;;;;;;;5001410;28;20441;-71
2022/05/21 12:30:00;;;;;;;1.50;1.40;;;;;;;;;;5010863;28;20286;-71
2022/05/21 12:32:26;;;;;;;1.52;1.42;;;;;;;;;;5008987;28;20026;-71
2022/05/21 12:34:58;;;;;;;2.08;1.70;;;;;;;;;;5004506;28;20028;-73
2022/05/21 12:37:23;;;;;;;1.63;1.52;;;;;;;;;;5006838;28;20045;-72
2022/05/21 12:40:01;;;;;;;2.20;1.83;;;;;;;;;;4997672;28;20030;-74
2022/05/21 12:42:43;;;;;;;1.90;1.75;;;;;;;;;;5005949;28;20060;-70
2022/05/21 12:45:09;;;;;;;1.67;1.58;;;;;;;;;;5004486;28;20029;-81
2022/05/21 12:47:42;;;;;;;2.45;1.83;;;;;;;;;;5004265;28;20034;-73
2022/05/21 12:50:21;;;;;;;1.58;1.48;;;;;;;;;;5006222;28;20064;-71
2022/05/21 12:52:51;;;;;;;2.58;1.77;;;;;;;;;;5003981;28;20120;-82
2022/05/21 12:55:27;;;;;;;1.60;1.50;;;;;;;;;;5003952;28;20456;-72
2022/05/21 12:57:54;;;;;;;2.03;1.63;;;;;;;;;;5006032;28;20484;-72
2022/05/21 13:00:20;;;;;;;1.90;1.58;;;;;;;;;;5004797;28;20067;-74
2022/05/21 13:02:50;;;;;;;3.65;1.73;;;;;;;;;;5003329;28;20029;-75
2022/05/21 13:05:18;;;;;;;2.30;1.58;;;;;;;;;;5005928;28;20108;-76
2022/05/21 13:07:45;;;;;;;1.90;1.73;;;;;;;;;;5005809;28;20030;-80
2022/05/21 13:10:45;;;;;;;3.10;1.77;;;;;;;;;;5005022;28;20463;-73
2022/05/21 13:13:13;;;;;;;1.70;1.60;;;;;;;;;;4941125;28;20071;-77
2022/05/21 13:15:42;;;;;;;1.92;1.55;;;;;;;;;;4990560;28;20057;-75
2022/05/21 13:18:08;;;;;;;2.95;1.80;;;;;;;;;;4999982;28;20033;-77
2022/05/21 13:20:58;;;;;;;2.22;2.03;;;;;;;;;;5006240;28;20029;-72
2022/05/21 13:23:42;;;;;;;4.13;1.92;;;;;;;;;;5010635;28;20475;-71
2022/05/21 13:26:14;;;;;;;1.55;1.45;;;;;;;;;;5010965;28;20133;-71
2022/05/21 13:28:39;;;;;;;2.00;1.77;;;;;;;;;;5013826;28;20516;-76
2022/05/21 13:31:14;;;;;;;3.00;1.90;;;;;;;;;;5016998;28;20112;-79
2022/05/21 13:33:49;;;;;;;1.80;1.70;;;;;;;;;;4997169;28;20302;-72
2022/05/21 13:36:16;;;;;;;4.32;2.15;;;;;;;;;;5017402;28;20037;-73
2022/05/21 13:38:44;;;;;;;2.22;1.73;;;;;;;;;;5006582;28;20097;-71
2022/05/21 13:41:13;;;;;;;1.80;1.70;;;;;;;;;;5003407;28;20052;-80
2022/05/21 13:43:41;;;;;;;3.38;1.60;;;;;;;;;;5001823;28;20452;-74
2022/05/21 13:46:08;;;;;;;2.05;1.85;;;;;;;;;;4998396;28;20046;-71
2022/05/21 13:48:45;;;;;;;2.97;1.90;;;;;;;;;;4992450;28;20378;-73
2022/05/21 13:51:15;;;;;;;3.25;2.65;;;;;;;;;;4994526;28;20414;-70
2022/05/21 13:53:40;;;;;;;3.08;2.20;;;;;;;;;;4998972;28;20088;-72
2022/05/21 13:56:25;;;;;;;4.32;2.13;;;;;;;;;;4989258;28;20022;-71
2022/05/21 13:59:02;;;;;;;2.88;2.40;;;;;;;;;;4989118;28;20056;-71
2022/05/21 14:01:29;;;;;;;3.38;2.05;;;;;;;;;;4990467;28;20030;-70
2022/05/21 14:04:03;;;;;;;4.68;2.50;;;;;;;;;;4990006;28;20037;-71
2022/05/21 14:06:28;;;;;;;2.42;2.15;;;;;;;;;;4992134;28;20068;-73
2022/05/21 14:09:01;;;;;;;2.38;2.17;;;;;;;;;;4991756;28;20485;-72
2022/05/21 14:11:27;;;;;;;5.13;2.60;;;;;;;;;;5001199;28;20029;-71
2022/05/21 14:14:00;;;;;;;2.42;2.00;;;;;;;;;;4988363;28;20042;-75
2022/05/21 14:16:31;;;;;;;3.85;2.30;;;;;;;;;;5002755;28;20465;-76
2022/05/21 14:19:15;;;;;;;2.42;2.20;;;;;;;;;;5003847;28;20080;-76
2022/05/21 14:21:59;;;;;;;2.50;1.88;;;;;;;;;;5003961;28;20033;-79
2022/05/21 14:24:27;;;;;;;2.13;1.98;;;;;;;;;;5001358;28;20033;-70
2022/05/21 14:27:18;;;;;;;5.03;2.17;;;;;;;;;;5003580;28;20046;-73
2022/05/21 14:29:56;;;;;;;2.92;1.90;;;;;;;;;;4980405;28;20022;-74
2022/05/21 14:32:21;;;;;;;2.20;1.85;;;;;;;;;;4988119;28;20400;-74
2022/05/21 14:34:48;;;;;;;2.10;1.85;;;;;;;;;;4990374;28;20037;-70
2022/05/21 14:37:23;;;;;;;3.17;1.88;;;;;;;;;;4993230;28;20026;-70
2022/05/21 14:39:49;;;;;;;2.05;1.73;;;;;;;;;;4988214;28;20116;-71
2022/05/21 14:42:14;;;;;;;2.38;2.10;;;;;;;;;;4990928;28;20113;-71
2022/05/21 14:44:40;;;;;;;2.00;1.70;;;;;;;;;;4985712;28;20033;-72
2022/05/21 14:49:49;;;;;;;2.72;1.85;;;;;;;;;;4990207;28;20448;-73
2022/05/21 14:54:58;;;;;;;2.35;1.92;;;;;;;;;;4988385;28;20069;-77
2022/05/21 14:57:24;;;;;;;2.40;1.83;;;;;;;;;;5003623;28;20030;-71
2022/05/21 14:59:49;;;;;;;2.72;2.05;;;;;;;;;;5002294;28;20030;-74
2022/05/21 15:02:17;;;;;;;2.05;1.85;;;;;;;;;;5003090;28;20041;-71
2022/05/21 15:04:42;;;;;;;2.75;2.05;;;;;;;;;;4992352;28;20033;-71
2022/05/21 15:07:18;;;;;;;1.63;1.53;;;;;;;;;;4988239;28;20041;-81
2022/05/21 15:09:44;;;;;;;1.80;1.70;;;;;;;;;;4972740;28;20586;-77
2022/05/21 15:12:10;;;;;;;2.40;2.20;;;;;;;;;;4985814;28;20034;-73
2022/05/21 15:14:38;;;;;;;2.55;1.98;;;;;;;;;;4980836;28;20412;-72
2022/05/21 15:17:07;;;;;;;2.58;1.80;;;;;;;;;;4993613;28;20032;-77
2022/05/21 15:19:33;;;;;;;3.72;2.30;;;;;;;;;;5002448;28;20053;-72
2022/05/21 15:21:58;;;;;;;2.15;1.92;;;;;;;;;;4985601;28;20113;-75
2022/05/21 15:24:24;;;;;;;2.50;2.10;;;;;;;;;;4986431;28;20024;-75